Time;durP1;ratioP1;P1;durP2;ratioP2;P2;SDS_P1;SDS_P2;PMS_P1;PMS_P2;Temp;Humidity;BMP_temperature;BMP_pressure;BME280_temperature;BME280_humidity;BME280_pressure;Samples;Min_cycle;Max_cycle;Signal;HPM_P1;HPM_P2
2023/08/30 00:00:39;;;;;;;2.40;2.20;;;13.40;99.90;;;;;;5001291;28;20134;-76
2023/08/30 00:03:06;;;;;;;2.30;2.10;;;13.30;99.90;;;;;;4924201;28;1161152;-76
2023/08/30 00:05:32;;;;;;;2.80;2.38;;;13.30;99.90;;;;;;4970150;28;20047;-76
2023/08/30 00:07:57;;;;;;;;;;;13.30;99.90;;;;;;4962767;28;20398;-76
2023/08/30 00:10:23;;;;;;;2.65;2.45;;;13.20;99.90;;;;;;4968851;28;19921;-76
2023/08/30 00:12:49;;;;;;;2.60;2.40;;;13.30;99.90;;;;;;4990089;28;20491;-76
2023/08/30 00:15:15;;;;;;;2.80;2.40;;;13.30;99.90;;;;;;4997246;28;20050;-76
2023/08/30 00:17:41;;;;;;;2.88;2.40;;;13.20;99.90;;;;;;4998173;28;20376;-75
2023/08/30 00:20:08;;;;;;;2.83;2.63;;;13.20;99.90;;;;;;4953271;28;20082;-76
2023/08/30 00:22:35;;;;;;;2.83;2.53;;;13.20;99.90;;;;;;4969452;28;20431;-76
2023/08/30 00:25:01;;;;;;;2.80;2.50;;;13.20;99.90;;;;;;4970455;28;20043;-76
2023/08/30 00:27:27;;;;;;;3.00;2.60;;;13.20;99.90;;;;;;4967095;28;20557;-76
2023/08/30 00:29:53;;;;;;;2.72;2.38;;;13.20;99.90;;;;;;4969950;28;20430;-76
2023/08/30 00:32:18;;;;;;;3.13;2.67;;;13.20;99.90;;;;;;4957724;28;20415;-76
2023/08/30 00:34:44;;;;;;;3.33;2.70;;;13.10;99.90;;;;;;4965538;28;20051;-76
2023/08/30 00:37:10;;;;;;;3.42;2.67;;;13.10;99.90;;;;;;5000897;28;20070;-76
2023/08/30 00:39:39;;;;;;;2.88;2.58;;;13.00;99.90;;;;;;4969877;28;20479;-76
2023/08/30 00:42:07;;;;;;;3.13;2.70;;;13.00;99.90;;;;;;4953218;28;20051;-76
2023/08/30 00:44:33;;;;;;;3.03;2.63;;;13.00;99.90;;;;;;4957288;28;20059;-76
2023/08/30 00:47:03;;;;;;;2.90;2.58;;;13.00;99.90;;;;;;4999029;28;20069;-76
2023/08/30 00:49:30;;;;;;;2.70;2.50;;;13.00;99.90;;;;;;4970075;28;20093;-75
2023/08/30 00:51:58;;;;;;;3.08;2.67;;;12.90;99.90;;;;;;4961310;28;20097;-75
2023/08/30 00:54:24;;;;;;;2.80;2.50;;;12.90;99.90;;;;;;4960396;28;20047;-75
2023/08/30 00:56:50;;;;;;;3.13;2.25;;;12.90;99.90;;;;;;4968296;28;20034;-76
2023/08/30 00:59:16;;;;;;;2.50;2.30;;;12.90;99.90;;;;;;4999101;28;20043;-75
2023/08/30 01:01:42;;;;;;;4.18;2.47;;;12.90;99.90;;;;;;4974028;28;20053;-76
2023/08/30 01:04:08;;;;;;;3.00;2.70;;;12.80;99.90;;;;;;4969387;28;20051;-76
2023/08/30 01:06:36;;;;;;;2.72;2.45;;;12.80;99.90;;;;;;4986864;28;20057;-75
2023/08/30 01:09:03;;;;;;;2.47;2.28;;;12.80;99.90;;;;;;4962454;28;20073;-75
2023/08/30 01:11:44;;;;;;;2.50;2.30;;;12.80;99.90;;;;;;4967338;28;20100;-75
2023/08/30 01:14:14;;;;;;;2.63;2.40;;;12.80;99.90;;;;;;4952126;28;20042;-75
2023/08/30 01:16:40;;;;;;;2.67;2.40;;;12.80;99.90;;;;;;4970049;28;20050;-76
2023/08/30 01:19:49;;;;;;;2.50;2.30;;;12.80;99.90;;;;;;4919243;28;20372;-75
2023/08/30 01:22:23;;;;;;;2.35;2.15;;;12.80;99.90;;;;;;4963694;28;20510;-75
2023/08/30 01:24:58;;;;;;;3.05;2.28;;;12.70;99.90;;;;;;4969646;28;20089;-75
2023/08/30 01:27:25;;;;;;;2.38;2.17;;;12.80;99.90;;;;;;4955924;28;20122;-75
2023/08/30 01:29:56;;;;;;;2.88;2.45;;;12.80;99.90;;;;;;4963524;28;20043;-75
2023/08/30 01:32:25;;;;;;;2.20;2.00;;;12.70;99.90;;;;;;4971374;28;20117;-75
2023/08/30 01:34:51;;;;;;;2.55;2.10;;;12.80;99.90;;;;;;4969856;28;20039;-75
2023/08/30 01:37:17;;;;;;;;;;;12.80;99.90;;;;;;5001313;28;20565;-75
2023/08/30 01:39:43;;;;;;;3.53;2.55;;;12.70;99.90;;;;;;4961304;28;19922;-76
2023/08/30 01:42:09;;;;;;;2.63;2.42;;;12.70;99.90;;;;;;5002225;28;20499;-76
2023/08/30 01:44:37;;;;;;;2.72;2.35;;;12.70;99.90;;;;;;4965968;28;20039;-76
2023/08/30 01:47:03;;;;;;;2.65;2.30;;;12.70;99.90;;;;;;4964818;28;20497;-76
2023/08/30 01:49:33;;;;;;;2.60;2.38;;;12.60;99.90;;;;;;4973446;28;20514;-75
2023/08/30 01:52:00;;;;;;;2.60;2.38;;;12.60;99.90;;;;;;4954895;28;20116;-75
2023/08/30 01:54:27;;;;;;;2.60;2.40;;;12.60;99.90;;;;;;4958522;28;20482;-75
2023/08/30 01:56:53;;;;;;;2.50;2.30;;;12.60;99.90;;;;;;4950529;28;20385;-75
2023/08/30 01:59:19;;;;;;;2.60;2.30;;;12.60;99.90;;;;;;4996022;28;20051;-75
2023/08/30 02:01:44;;;;;;;2.75;2.47;;;12.50;99.90;;;;;;4972784;28;20090;-75
2023/08/30 02:04:10;;;;;;;3.15;2.85;;;12.50;99.90;;;;;;4961976;28;20209;-75
2023/08/30 02:06:45;;;;;;;3.17;2.70;;;12.50;99.90;;;;;;4971513;28;20059;-75
2023/08/30 02:09:46;;;;;;;3.03;2.72;;;12.50;99.90;;;;;;4979818;28;20116;-75
2023/08/30 02:12:15;;;;;;;3.08;2.60;;;12.50;99.90;;;;;;4917368;29;20050;-75
2023/08/30 02:14:49;;;;;;;2.70;2.38;;;12.50;99.90;;;;;;4957288;28;20054;-75
2023/08/30 02:17:15;;;;;;;2.50;2.30;;;12.50;99.90;;;;;;4955159;28;20125;-75
2023/08/30 02:19:43;;;;;;;2.95;2.65;;;12.50;99.90;;;;;;4970089;28;20117;-75
2023/08/30 02:22:08;;;;;;;2.75;2.50;;;12.50;99.90;;;;;;4961773;28;20161;-75
2023/08/30 02:24:34;;;;;;;2.97;2.55;;;12.50;99.90;;;;;;4959284;28;20146;-75
2023/08/30 02:27:00;;;;;;;2.65;2.33;;;12.50;99.90;;;;;;4969233;28;20031;-75
2023/08/30 02:29:25;;;;;;;2.65;2.45;;;12.60;99.90;;;;;;4953176;28;20403;-75
2023/08/30 02:31:51;;;;;;;2.97;2.50;;;12.60;99.90;;;;;;4984214;28;20123;-75
2023/08/30 02:34:17;;;;;;;2.70;2.42;;;12.60;99.90;;;;;;4963996;28;20051;-75
2023/08/30 02:36:42;;;;;;;2.92;2.58;;;12.60;99.90;;;;;;4974597;28;20387;-75
2023/08/30 02:39:08;;;;;;;2.25;2.05;;;12.60;99.90;;;;;;4961378;28;20049;-75
2023/08/30 02:41:34;;;;;;;2.65;2.45;;;12.60;99.90;;;;;;4971657;28;20053;-75
2023/08/30 02:44:00;;;;;;;2.60;2.25;;;12.60;99.90;;;;;;4959692;28;20042;-75
2023/08/30 02:46:25;;;;;;;2.63;2.20;;;12.60;99.90;;;;;;4960235;28;20486;-75
2023/08/30 02:48:51;;;;;;;2.90;2.60;;;12.60;99.90;;;;;;4958029;28;20050;-75
2023/08/30 02:51:17;;;;;;;2.58;2.38;;;12.70;99.90;;;;;;4963110;28;20094;-75
2023/08/30 02:53:42;;;;;;;2.67;2.47;;;12.70;99.90;;;;;;4987733;28;20050;-75
2023/08/30 02:56:08;;;;;;;3.30;2.70;;;12.60;99.90;;;;;;5004928;28;20030;-75
2023/08/30 02:58:34;;;;;;;2.90;2.58;;;12.70;99.90;;;;;;4973918;28;20553;-75
2023/08/30 03:01:02;;;;;;;3.35;2.97;;;12.60;99.90;;;;;;4985543;28;20101;-75
2023/08/30 03:03:28;;;;;;;3.45;2.78;;;12.60;99.90;;;;;;4970951;28;20046;-75
2023/08/30 03:05:54;;;;;;;3.03;2.55;;;12.50;99.90;;;;;;4970322;28;20122;-75
2023/08/30 03:08:19;;;;;;;2.90;2.50;;;12.50;99.90;;;;;;4970609;28;20109;-75
2023/08/30 03:10:45;;;;;;;2.63;2.33;;;12.50;99.90;;;;;;4954696;28;20074;-75
2023/08/30 03:13:11;;;;;;;2.53;2.28;;;12.40;99.90;;;;;;4954607;28;20051;-75
2023/08/30 03:15:36;;;;;;;2.90;2.60;;;12.40;99.90;;;;;;4986091;28;20188;-75
2023/08/30 03:18:02;;;;;;;3.15;2.53;;;12.40;99.90;;;;;;4968252;28;20179;-75
2023/08/30 03:20:28;;;;;;;2.97;2.65;;;12.30;99.90;;;;;;4966816;28;20130;-75
2023/08/30 03:22:57;;;;;;;3.00;2.70;;;12.30;99.90;;;;;;4969250;28;20787;-75
2023/08/30 03:25:23;;;;;;;2.75;2.45;;;12.30;99.90;;;;;;4955311;28;20383;-75
2023/08/30 03:27:49;;;;;;;3.60;3.00;;;12.20;99.90;;;;;;4979720;28;20053;-75
2023/08/30 03:30:15;;;;;;;2.55;2.33;;;12.20;99.90;;;;;;4957922;28;20122;-75
2023/08/30 03:32:40;;;;;;;3.00;2.70;;;12.20;99.90;;;;;;4968391;28;20062;-75
2023/08/30 03:35:06;;;;;;;2.60;2.40;;;12.20;99.90;;;;;;4940604;28;20557;-75
2023/08/30 03:37:32;;;;;;;2.50;2.30;;;12.20;99.90;;;;;;4969275;28;20125;-75
2023/08/30 03:39:58;;;;;;;3.22;2.50;;;12.20;99.90;;;;;;4970623;28;20534;-75
2023/08/30 03:42:23;;;;;;;2.80;2.50;;;12.20;99.90;;;;;;4963926;28;20047;-75
2023/08/30 03:44:49;;;;;;;3.25;2.70;;;12.10;99.90;;;;;;4954990;28;20129;-75
2023/08/30 03:47:14;;;;;;;3.35;2.92;;;12.10;99.90;;;;;;4944848;28;20130;-75
2023/08/30 03:49:40;;;;;;;3.22;2.90;;;12.10;99.90;;;;;;4960585;28;20043;-75
2023/08/30 03:52:06;;;;;;;3.58;2.60;;;12.10;99.90;;;;;;4968146;28;20046;-75
2023/08/30 03:54:32;;;;;;;3.25;2.58;;;12.00;99.90;;;;;;4970348;28;20081;-75
2023/08/30 03:56:57;;;;;;;2.75;2.45;;;12.00;99.90;;;;;;4969618;28;20042;-75
2023/08/30 03:59:25;;;;;;;2.88;2.58;;;12.00;99.90;;;;;;4990803;28;20076;-75
2023/08/30 04:01:51;;;;;;;2.90;2.60;;;11.90;99.90;;;;;;4995795;28;20046;-75
2023/08/30 04:04:17;;;;;;;3.25;2.65;;;12.00;99.90;;;;;;4949764;28;20058;-75
2023/08/30 04:06:42;;;;;;;3.13;2.60;;;11.90;99.90;;;;;;4945752;28;20769;-75
2023/08/30 04:09:08;;;;;;;3.00;2.70;;;11.90;99.90;;;;;;4969970;28;20058;-75
2023/08/30 04:11:34;;;;;;;3.00;2.70;;;11.90;99.90;;;;;;4915451;28;20093;-75
2023/08/30 04:13:59;;;;;;;3.70;2.90;;;11.90;99.90;;;;;;4968907;28;20046;-75
2023/08/30 04:16:25;;;;;;;3.35;2.80;;;11.90;99.90;;;;;;4959450;28;20050;-75
2023/08/30 04:18:51;;;;;;;3.20;2.90;;;11.90;99.90;;;;;;4997674;28;20144;-75
2023/08/30 04:21:16;;;;;;;3.45;2.80;;;11.90;99.90;;;;;;4967652;28;20078;-75
2023/08/30 04:23:42;;;;;;;3.20;2.90;;;12.00;99.90;;;;;;4965317;28;20046;-75
2023/08/30 04:26:07;;;;;;;3.38;3.08;;;11.90;99.90;;;;;;4970378;28;20065;-75
2023/08/30 04:28:33;;;;;;;3.08;2.60;;;12.00;99.90;;;;;;4962953;28;20049;-75
2023/08/30 04:30:59;;;;;;;2.83;2.53;;;12.00;99.90;;;;;;4969292;28;20405;-75
2023/08/30 04:33:25;;;;;;;2.58;2.38;;;12.10;99.90;;;;;;4958794;28;20134;-75
2023/08/30 04:35:55;;;;;;;3.63;2.80;;;12.00;99.90;;;;;;4960346;28;20553;-75
2023/08/30 04:38:21;;;;;;;2.90;2.40;;;12.10;99.90;;;;;;4963796;28;20479;-75
2023/08/30 04:40:48;;;;;;;2.83;2.50;;;12.00;99.90;;;;;;4954227;28;20054;-75
2023/08/30 04:43:14;;;;;;;2.47;2.28;;;12.10;99.90;;;;;;4963380;28;20499;-75
2023/08/30 04:45:40;;;;;;;;;;;12.00;99.90;;;;;;4957474;28;20486;-75
2023/08/30 04:48:06;;;;;;;3.35;2.85;;;12.00;99.90;;;;;;4965558;28;19934;-75
2023/08/30 04:50:31;;;;;;;3.45;3.08;;;12.00;99.90;;;;;;4951217;28;20489;-75
2023/08/30 04:52:57;;;;;;;3.75;2.40;;;12.00;99.90;;;;;;4961983;28;20043;-75
2023/08/30 04:55:29;;;;;;;3.00;2.58;;;12.00;99.90;;;;;;4965838;28;20755;-75
2023/08/30 04:57:55;;;;;;;3.58;2.63;;;12.00;99.90;;;;;;4965719;28;20061;-75
2023/08/30 05:00:21;;;;;;;3.35;2.72;;;12.00;99.90;;;;;;4985035;28;20050;-75
2023/08/30 05:02:46;;;;;;;2.45;2.10;;;12.00;99.90;;;;;;4968837;28;20042;-75
2023/08/30 05:05:14;;;;;;;2.55;2.20;;;12.00;99.90;;;;;;4963442;28;20514;-75
2023/08/30 05:07:40;;;;;;;2.75;2.40;;;12.00;99.90;;;;;;4953965;28;20122;-75
2023/08/30 05:10:06;;;;;;;4.68;2.55;;;12.10;99.90;;;;;;4968931;28;20070;-75
2023/08/30 05:12:34;;;;;;;2.75;2.47;;;12.00;99.90;;;;;;4952935;28;20073;-75
2023/08/30 05:15:00;;;;;;;3.08;2.67;;;12.10;99.90;;;;;;4961334;28;20747;-76
2023/08/30 05:17:28;;;;;;;2.63;2.17;;;12.10;99.90;;;;;;4968264;28;20133;-76
2023/08/30 05:19:53;;;;;;;2.83;2.40;;;12.10;99.90;;;;;;4943772;28;20533;-76
2023/08/30 05:22:19;;;;;;;2.83;2.50;;;12.20;99.90;;;;;;4969020;28;20043;-76
2023/08/30 05:24:45;;;;;;;2.97;2.47;;;12.20;99.90;;;;;;4968271;28;20134;-76
2023/08/30 05:27:11;;;;;;;2.63;2.40;;;12.30;99.90;;;;;;4998900;28;20078;-77
2023/08/30 05:29:37;;;;;;;;;;;12.30;99.90;;;;;;4969801;28;20799;-75
2023/08/30 05:32:03;;;;;;;3.10;2.30;;;12.40;99.90;;;;;;4976746;28;19934;-76
2023/08/30 05:34:29;;;;;;;;;;;12.40;99.90;;;;;;4962146;28;20055;-76
2023/08/30 05:36:54;;;;;;;2.90;2.58;;;12.50;99.90;;;;;;4966549;28;19929;-75
2023/08/30 05:39:20;;;;;;;3.00;2.50;;;12.50;99.90;;;;;;4963736;28;20550;-76
2023/08/30 05:41:46;;;;;;;4.13;3.15;;;12.50;99.90;;;;;;4993321;28;20447;-75
2023/08/30 05:44:12;;;;;;;2.95;2.50;;;12.60;99.90;;;;;;4972428;28;20103;-75
2023/08/30 05:46:37;;;;;;;2.75;2.47;;;12.60;99.90;;;;;;4972099;28;20068;-75
2023/08/30 05:49:03;;;;;;;3.17;2.72;;;12.70;99.90;;;;;;4971756;28;20043;-76
2023/08/30 05:51:29;;;;;;;2.92;2.55;;;12.70;99.90;;;;;;4964175;28;20078;-76
2023/08/30 05:53:55;;;;;;;3.38;2.83;;;12.80;99.90;;;;;;4969513;28;20046;-76
2023/08/30 05:56:20;;;;;;;3.15;2.70;;;12.80;99.90;;;;;;4998030;28;20101;-76
2023/08/30 05:58:46;;;;;;;3.13;2.70;;;12.80;99.90;;;;;;4967208;28;20047;-76
2023/08/30 06:01:12;;;;;;;2.90;2.60;;;12.90;99.90;;;;;;4996102;28;20054;-75
2023/08/30 06:03:37;;;;;;;2.80;2.50;;;13.00;99.90;;;;;;4967245;28;20065;-77
2023/08/30 06:06:03;;;;;;;3.65;3.13;;;13.00;99.90;;;;;;4972627;28;20187;-77
2023/08/30 06:08:29;;;;;;;2.90;2.60;;;13.10;99.90;;;;;;4962446;28;20067;-77
2023/08/30 06:10:55;;;;;;;3.60;2.50;;;13.20;99.90;;;;;;4968784;28;20039;-76
2023/08/30 06:13:21;;;;;;;2.53;2.25;;;13.20;99.90;;;;;;4944867;28;20043;-75
2023/08/30 06:15:51;;;;;;;3.25;2.70;;;13.30;99.90;;;;;;4964830;28;20101;-76
2023/08/30 06:18:17;;;;;;;2.67;2.38;;;13.30;99.90;;;;;;4969641;28;20049;-76
2023/08/30 06:20:42;;;;;;;2.60;2.40;;;13.40;99.90;;;;;;4955926;28;20130;-78
2023/08/30 06:23:08;;;;;;;2.63;2.30;;;13.50;99.90;;;;;;4959884;28;20151;-76
2023/08/30 06:25:34;;;;;;;2.80;2.40;;;13.60;99.90;;;;;;4966283;28;20409;-76
2023/08/30 06:28:01;;;;;;;2.60;2.30;;;13.70;99.90;;;;;;4971214;28;20047;-76
2023/08/30 06:30:29;;;;;;;2.40;2.20;;;13.80;99.90;;;;;;4943805;28;20497;-77
2023/08/30 06:32:55;;;;;;;2.22;2.03;;;14.00;99.90;;;;;;4967069;28;20119;-77
2023/08/30 06:35:21;;;;;;;3.42;2.58;;;14.20;99.90;;;;;;4956065;28;20050;-77
2023/08/30 06:37:47;;;;;;;3.28;2.80;;;14.50;99.90;;;;;;4971697;28;20043;-77
2023/08/30 06:40:13;;;;;;;3.15;2.83;;;14.70;99.90;;;;;;4955503;28;20087;-76
2023/08/30 06:42:38;;;;;;;3.53;2.72;;;14.90;99.90;;;;;;4969928;28;20050;-77
2023/08/30 06:45:05;;;;;;;3.00;2.67;;;15.00;99.90;;;;;;4955754;28;20042;-77
2023/08/30 06:47:30;;;;;;;3.15;2.58;;;14.80;99.90;;;;;;4952449;28;20383;-77
2023/08/30 06:49:56;;;;;;;3.20;2.90;;;14.70;99.90;;;;;;4968568;28;20035;-77
2023/08/30 06:52:22;;;;;;;;;;;14.60;99.90;;;;;;5000241;28;20053;-77
2023/08/30 06:54:48;;;;;;;4.05;2.90;;;14.60;99.90;;;;;;4981466;28;19922;-78
2023/08/30 06:57:14;;;;;;;3.33;3.03;;;14.50;99.90;;;;;;4939062;28;20096;-78
2023/08/30 06:59:39;;;;;;;3.90;3.42;;;14.50;99.90;;;;;;4970859;28;20429;-77
2023/08/30 07:02:06;;;;;;;4.05;3.20;;;14.50;99.90;;;;;;4966133;28;20101;-76
2023/08/30 07:04:31;;;;;;;3.60;3.20;;;14.50;99.90;;;;;;4971646;28;20149;-77
2023/08/30 07:06:57;;;;;;;3.65;2.95;;;14.50;99.90;;;;;;4963949;28;20122;-77
2023/08/30 07:09:28;;;;;;;3.75;2.92;;;14.60;99.90;;;;;;4940756;28;20098;-78
2023/08/30 07:11:57;;;;;;;3.38;2.63;;;14.60;99.90;;;;;;4964141;28;20450;-77
2023/08/30 07:14:22;;;;;;;3.40;2.83;;;14.60;99.90;;;;;;4973356;28;20047;-77
2023/08/30 07:16:49;;;;;;;3.08;2.70;;;14.60;99.90;;;;;;4969482;28;20043;-77
2023/08/30 07:19:15;;;;;;;3.40;2.65;;;14.50;99.90;;;;;;4953545;28;20054;-76
2023/08/30 07:21:42;;;;;;;3.72;3.00;;;14.50;99.90;;;;;;4965245;28;20035;-77
2023/08/30 07:24:08;;;;;;;3.03;2.72;;;14.50;99.90;;;;;;5002341;28;20538;-77
2023/08/30 07:26:34;;;;;;;3.30;2.80;;;14.50;99.90;;;;;;4937478;28;20225;-77
2023/08/30 07:29:00;;;;;;;3.75;3.22;;;14.50;99.90;;;;;;4951851;29;20491;-77
2023/08/30 07:31:26;;;;;;;3.70;2.63;;;14.50;99.90;;;;;;4959615;28;20081;-77
2023/08/30 07:33:51;;;;;;;3.35;2.67;;;14.60;99.90;;;;;;4965927;28;20090;-75
2023/08/30 07:36:17;;;;;;;3.65;2.90;;;14.60;99.90;;;;;;4951496;28;20042;-76
2023/08/30 07:38:43;;;;;;;3.90;2.33;;;14.70;99.90;;;;;;4958664;28;20055;-75
2023/08/30 07:41:09;;;;;;;3.60;2.70;;;14.80;99.90;;;;;;4957830;28;20039;-77
2023/08/30 07:43:35;;;;;;;2.55;2.03;;;14.90;99.90;;;;;;4958250;28;20173;-78
2023/08/30 07:46:01;;;;;;;4.40;3.00;;;15.00;5.30;;;;;;4962567;28;20146;-78
2023/08/30 07:48:26;;;;;;;4.13;3.10;;;15.20;1.00;;;;;;4965870;28;20439;-79
2023/08/30 07:50:52;;;;;;;4.00;3.17;;;15.50;99.90;;;;;;4967874;28;20360;-78
2023/08/30 07:53:18;;;;;;;3.63;3.05;;;15.70;99.90;;;;;;4972547;28;20079;-77
2023/08/30 07:55:49;;;;;;;4.43;3.17;;;15.80;52.10;;;;;;4988359;28;20042;-78
2023/08/30 07:58:15;;;;;;;3.83;2.75;;;15.90;99.90;;;;;;4967695;28;20109;-78
2023/08/30 08:00:41;;;;;;;3.65;3.00;;;15.90;99.90;;;;;;4970573;28;20042;-79
2023/08/30 08:03:07;;;;;;;3.92;2.70;;;15.90;52.30;;;;;;4953919;28;20059;-78
2023/08/30 08:05:32;;;;;;;3.75;2.85;;;16.00;1.00;;;;;;4950287;28;20065;-78
2023/08/30 08:08:03;;;;;;;3.50;2.67;;;16.00;1.00;;;;;;4969596;28;20043;-78
2023/08/30 08:10:36;;;;;;;4.95;3.00;;;16.10;99.90;;;;;;4967376;28;20410;-79
2023/08/30 08:13:18;;;;;;;3.58;3.05;;;16.20;1.00;;;;;;4985359;28;20058;-79
2023/08/30 08:15:44;;;;;;;3.38;2.90;;;16.20;99.90;;;;;;4969717;28;20042;-79
2023/08/30 08:18:10;;;;;;;4.00;3.13;;;16.30;59.00;;;;;;4937144;28;20470;-78
2023/08/30 08:20:36;;;;;;;4.53;3.50;;;16.30;94.70;;;;;;4959873;28;20047;-78
2023/08/30 08:23:03;;;;;;;3.33;2.80;;;16.30;99.90;;;;;;4985285;28;20062;-80
2023/08/30 08:25:29;;;;;;;3.45;2.70;;;16.40;99.90;;;;;;4949084;28;20099;-78
2023/08/30 08:27:54;;;;;;;4.63;3.05;;;16.50;99.90;;;;;;4966673;28;20133;-79
2023/08/30 08:30:20;;;;;;;3.72;3.03;;;16.50;99.90;;;;;;4968368;28;20038;-79
2023/08/30 08:32:50;;;;;;;5.25;3.70;;;16.50;24.00;;;;;;4994007;28;20038;-78
2023/08/30 08:35:16;;;;;;;4.18;3.25;;;16.50;99.90;;;;;;4969666;28;20053;-79
2023/08/30 08:37:41;;;;;;;3.55;2.75;;;16.50;1.00;;;;;;4953591;28;20051;-79
2023/08/30 08:40:10;;;;;;;5.50;3.90;;;16.50;2.90;;;;;;4954972;28;20046;-79
2023/08/30 08:42:37;;;;;;;5.15;3.97;;;16.50;99.90;;;;;;4969733;28;20054;-78
2023/08/30 08:45:04;;;;;;;5.47;4.20;;;16.60;99.90;;;;;;5002711;28;20042;-78
2023/08/30 08:47:33;;;;;;;4.78;3.08;;;16.60;99.90;;;;;;4953292;28;20039;-78
2023/08/30 08:50:00;;;;;;;3.70;2.90;;;16.70;99.90;;;;;;4963823;28;20043;-78
2023/08/30 08:52:26;;;;;;;4.00;3.20;;;16.80;99.90;;;;;;4978435;28;20039;-78
2023/08/30 08:54:52;;;;;;;3.35;2.67;;;16.80;99.90;;;;;;4965969;28;20042;-79
2023/08/30 08:57:19;;;;;;;3.33;2.50;;;16.80;99.90;;;;;;4980391;28;20137;-78
2023/08/30 08:59:45;;;;;;;3.33;2.67;;;16.70;99.90;;;;;;4952907;28;20038;-78
2023/08/30 09:02:14;;;;;;;2.80;2.50;;;16.70;99.90;;;;;;4950827;28;20043;-78
2023/08/30 09:04:40;;;;;;;4.05;3.33;;;16.60;99.90;;;;;;4969108;28;20070;-78
2023/08/30 09:07:06;;;;;;;4.65;4.00;;;16.50;99.90;;;;;;4963782;28;20436;-83
2023/08/30 09:09:35;;;;;;;;;;;16.40;97.40;;;;;;4953568;28;20039;-78
2023/08/30 09:12:01;;;;;;;3.97;3.38;;;16.40;99.90;;;;;;4992883;28;20421;-78
2023/08/30 09:14:26;;;;;;;3.97;3.13;;;16.30;99.90;;;;;;4979817;28;20042;-78
2023/08/30 09:16:57;;;;;;;4.30;3.47;;;16.30;99.90;;;;;;4998604;28;20594;-78
2023/08/30 09:19:24;;;;;;;6.30;3.70;;;16.20;99.90;;;;;;4972802;28;20522;-78
2023/08/30 09:21:53;;;;;;;3.67;3.22;;;16.20;99.90;;;;;;5002096;28;20148;-78
2023/08/30 09:24:19;;;;;;;5.40;4.07;;;16.20;99.90;;;;;;4950960;28;20046;-78
2023/08/30 09:26:51;;;;;;;5.50;3.60;;;16.10;91.20;;;;;;4956895;28;20043;-78
2023/08/30 09:29:18;;;;;;;4.15;3.40;;;16.10;99.90;;;;;;4967212;28;20398;-78
2023/08/30 09:31:44;;;;;;;5.18;3.88;;;16.10;99.90;;;;;;4966661;28;20050;-78
2023/08/30 09:34:11;;;;;;;4.78;3.88;;;16.10;99.90;;;;;;4979530;28;20522;-77
2023/08/30 09:36:38;;;;;;;4.60;3.45;;;16.10;99.90;;;;;;4955832;28;20075;-78
2023/08/30 09:39:09;;;;;;;5.22;3.70;;;16.10;99.90;;;;;;4975188;28;20046;-78
2023/08/30 09:41:35;;;;;;;3.97;3.20;;;16.10;99.90;;;;;;4973039;28;20051;-78
2023/08/30 09:44:17;;;;;;;5.38;3.90;;;16.20;99.90;;;;;;4955768;28;20447;-78
2023/08/30 09:46:45;;;;;;;6.38;3.65;;;16.30;99.90;;;;;;4985647;28;20058;-77
2023/08/30 09:49:12;;;;;;;5.50;3.70;;;16.30;99.90;;;;;;4972487;28;20062;-80
2023/08/30 09:51:46;;;;;;;6.30;4.50;;;16.30;99.90;;;;;;4964566;28;20066;-80
2023/08/30 09:54:17;;;;;;;4.63;3.90;;;16.30;99.90;;;;;;4972153;28;20133;-81
2023/08/30 09:56:44;;;;;;;3.83;3.35;;;16.40;1.00;;;;;;4970232;28;20658;-81
2023/08/30 09:59:12;;;;;;;4.10;3.00;;;16.40;1.00;;;;;;4956289;28;20124;-81
2023/08/30 10:01:39;;;;;;;4.13;2.90;;;16.40;1.00;;;;;;5001365;28;20451;-81
2023/08/30 10:04:08;;;;;;;3.00;2.50;;;16.50;5.00;;;;;;4996507;28;20059;-80
2023/08/30 10:06:36;;;;;;;3.83;2.90;;;16.50;1.00;;;;;;4968317;28;20825;-81
2023/08/30 10:09:04;;;;;;;4.13;3.03;;;16.60;1.00;;;;;;4956127;28;20045;-81
2023/08/30 10:11:33;;;;;;;3.28;2.85;;;16.70;99.90;;;;;;4989687;28;20065;-80
2023/08/30 10:14:00;;;;;;;4.65;2.90;;;16.80;99.90;;;;;;4964164;28;20047;-81
2023/08/30 10:16:29;;;;;;;4.68;3.30;;;16.80;99.90;;;;;;4967789;28;20047;-80
2023/08/30 10:19:02;;;;;;;3.58;2.72;;;16.80;82.00;;;;;;4961288;28;20510;-81
2023/08/30 10:21:29;;;;;;;3.15;2.20;;;16.80;99.90;;;;;;4970117;28;20039;-81
2023/08/30 10:23:56;;;;;;;2.78;2.03;;;16.80;99.90;;;;;;4963153;28;20047;-81
2023/08/30 10:26:25;;;;;;;2.92;2.13;;;16.80;99.90;;;;;;4955373;28;20069;-80
2023/08/30 10:28:54;;;;;;;2.60;1.92;;;16.70;99.90;;;;;;4968237;28;20042;-80
2023/08/30 10:31:20;;;;;;;2.72;2.00;;;16.70;99.90;;;;;;4966714;28;20117;-80
2023/08/30 10:33:47;;;;;;;;;;;16.60;1.00;;;;;;4956461;28;20046;-80
2023/08/30 10:36:20;;;;;;;3.15;2.47;;;16.70;99.90;;;;;;4993534;28;20053;-80
2023/08/30 10:38:50;;;;;;;3.22;2.22;;;16.70;99.90;;;;;;4988579;28;20054;-81
2023/08/30 10:41:26;;;;;;;2.83;2.20;;;16.80;99.90;;;;;;4961072;28;20054;-80
2023/08/30 10:43:55;;;;;;;2.30;1.90;;;16.90;99.90;;;;;;5001367;28;20051;-79
2023/08/30 10:46:34;;;;;;;2.10;1.60;;;17.10;1.00;;;;;;4968947;28;20129;-79
2023/08/30 10:49:14;;;;;;;2.40;1.80;;;17.30;99.90;;;;;;4984600;28;20118;-80
2023/08/30 10:51:40;;;;;;;3.67;2.10;;;17.40;99.90;;;;;;4997387;28;20338;-80
2023/08/30 10:54:17;;;;;;;2.80;2.00;;;17.40;99.90;;;;;;4986897;28;20050;-80
2023/08/30 10:56:56;;;;;;;2.95;2.22;;;17.60;99.90;;;;;;4952437;28;20047;-78
2023/08/30 10:59:23;;;;;;;2.55;2.13;;;17.60;99.90;;;;;;4965563;28;20058;-79
2023/08/30 11:01:51;;;;;;;2.72;2.00;;;17.60;51.70;;;;;;4968029;28;20047;-79
2023/08/30 11:04:18;;;;;;;2.60;2.08;;;17.60;77.30;;;;;;4967059;28;20063;-80
2023/08/30 11:06:49;;;;;;;2.53;2.08;;;17.60;99.90;;;;;;4956056;28;20038;-81
2023/08/30 11:09:22;;;;;;;2.08;1.63;;;17.60;88.20;;;;;;4964837;28;20077;-80
2023/08/30 11:11:49;;;;;;;2.42;1.80;;;17.60;99.90;;;;;;4969629;28;20066;-79
2023/08/30 11:14:18;;;;;;;2.15;1.90;;;17.70;67.40;;;;;;4951767;28;20050;-79
2023/08/30 11:16:44;;;;;;;2.78;1.88;;;17.80;99.90;;;;;;4968930;28;20857;-81
2023/08/30 11:19:11;;;;;;;1.90;1.60;;;17.80;1.00;;;;;;4971467;28;20097;-80
2023/08/30 11:21:45;;;;;;;2.22;1.73;;;17.90;99.90;;;;;;4953658;28;20082;-80
2023/08/30 11:24:12;;;;;;;2.17;1.77;;;17.90;1.00;;;;;;4955435;28;20380;-80
2023/08/30 11:26:37;;;;;;;1.85;1.40;;;18.00;1.00;;;;;;4971759;28;20097;-80
2023/08/30 11:29:09;;;;;;;;;;;18.00;1.00;;;;;;4949661;28;20050;-79
2023/08/30 11:31:36;;;;;;;2.28;1.80;;;17.90;99.90;;;;;;4964111;28;19918;-79
2023/08/30 11:34:02;;;;;;;2.33;1.60;;;17.80;99.90;;;;;;4961202;28;20042;-79
2023/08/30 11:36:31;;;;;;;;;;;17.70;1.00;;;;;;4951455;28;20494;-79
2023/08/30 11:38:57;;;;;;;1.77;1.40;;;17.70;1.00;;;;;;4996473;28;19918;-82
2023/08/30 11:41:24;;;;;;;2.17;1.60;;;17.80;25.70;;;;;;4950541;28;20106;-81
2023/08/30 11:43:50;;;;;;;2.45;1.58;;;17.80;1.00;;;;;;4970143;28;20114;-81
2023/08/30 11:46:20;;;;;;;1.55;1.27;;;17.80;1.00;;;;;;4968951;28;20110;-80
2023/08/30 11:48:48;;;;;;;1.88;1.45;;;17.80;1.00;;;;;;4970551;28;20042;-81
2023/08/30 11:51:14;;;;;;;2.05;1.40;;;17.90;1.00;;;;;;4983378;28;20096;-80
2023/08/30 11:53:40;;;;;;;2.53;1.50;;;17.90;99.90;;;;;;4969479;28;20454;-81
2023/08/30 11:56:07;;;;;;;1.73;1.30;;;17.80;99.90;;;;;;4963752;28;20574;-83
2023/08/30 11:58:36;;;;;;;1.70;1.40;;;17.80;1.00;;;;;;4971117;28;20143;-81
2023/08/30 12:01:04;;;;;;;2.67;1.23;;;17.80;1.00;;;;;;4963993;28;20050;-80
2023/08/30 12:03:31;;;;;;;1.92;1.42;;;17.70;9.80;;;;;;4952282;28;20170;-84
2023/08/30 12:05:57;;;;;;;1.60;1.30;;;17.70;99.90;;;;;;4969602;28;20054;-81
2023/08/30 12:08:25;;;;;;;1.88;1.40;;;17.60;99.90;;;;;;4966831;28;20043;-82
2023/08/30 12:10:52;;;;;;;1.60;1.38;;;17.50;99.90;;;;;;4965929;28;20064;-79
2023/08/30 12:13:32;;;;;;;1.63;1.40;;;17.30;1.00;;;;;;4948104;28;20053;-79
2023/08/30 12:15:59;;;;;;;2.00;1.55;;;17.20;99.90;;;;;;4930782;28;20045;-79
2023/08/30 12:18:28;;;;;;;2.42;1.73;;;17.00;1.00;;;;;;4967627;28;20050;-79
2023/08/30 12:20:59;;;;;;;1.58;1.20;;;16.90;99.90;;;;;;4965667;28;20061;-79
2023/08/30 12:23:30;;;;;;;2.10;1.60;;;16.70;99.90;;;;;;4951063;28;20057;-79
2023/08/30 12:26:06;;;;;;;1.85;1.50;;;16.70;1.00;;;;;;4995953;28;20073;-80
2023/08/30 12:28:33;;;;;;;;;;;16.60;43.70;;;;;;4950302;28;20038;-80
2023/08/30 12:30:59;;;;;;;1.85;1.55;;;16.60;99.90;;;;;;4998030;28;20377;-80
2023/08/30 12:33:25;;;;;;;2.20;1.67;;;16.50;99.90;;;;;;4968282;28;20066;-80
2023/08/30 12:35:54;;;;;;;;;;;16.40;99.90;;;;;;4963136;28;20588;-80
2023/08/30 12:38:21;;;;;;;1.40;1.30;;;16.30;99.90;;;;;;4998288;28;19919;-76
2023/08/30 12:40:48;;;;;;;2.10;1.80;;;16.20;99.90;;;;;;4961748;28;20404;-81
2023/08/30 12:43:15;;;;;;;1.88;1.50;;;16.20;99.90;;;;;;4969956;28;20066;-81
2023/08/30 12:45:41;;;;;;;2.53;1.80;;;16.10;99.90;;;;;;4965688;28;20141;-80
2023/08/30 12:48:08;;;;;;;2.75;1.70;;;16.10;99.90;;;;;;4956615;28;20098;-81
2023/08/30 12:50:35;;;;;;;1.95;1.60;;;16.00;99.90;;;;;;4953978;28;20493;-80